createdAt,value
2024-04-19T00:00:50.103Z,95239.00
2024-04-19T00:01:50.140Z,95237.00
2024-04-19T00:02:50.210Z,95237.00
2024-04-19T00:03:50.473Z,95235.00
2024-04-19T00:04:50.462Z,95236.00
2024-04-19T00:05:50.401Z,95235.00
2024-04-19T00:06:50.508Z,95236.00
2024-04-19T00:07:50.554Z,95235.00
2024-04-19T00:08:50.629Z,95237.00
2024-04-19T00:09:50.714Z,95237.00
2024-04-19T00:10:50.804Z,95239.00
2024-04-19T00:11:50.861Z,95238.00
2024-04-19T00:12:50.910Z,95237.00
2024-04-19T00:13:50.991Z,95240.00
2024-04-19T00:14:51.055Z,95240.00
2024-04-19T00:15:51.205Z,95241.00
2024-04-19T00:16:51.277Z,95240.00
2024-04-19T00:17:51.356Z,95238.00
2024-04-19T00:18:51.379Z,95239.00
2024-04-19T00:19:51.436Z,95238.00
2024-04-19T00:20:51.479Z,95238.00
2024-04-19T00:21:51.572Z,95238.00
2024-04-19T00:22:51.640Z,95238.00
2024-04-19T00:23:51.722Z,95239.00
2024-04-19T00:24:51.795Z,95237.00
2024-04-19T00:25:51.822Z,95239.00
2024-04-19T00:26:51.902Z,95237.00
2024-04-19T00:27:51.994Z,95240.00
2024-04-19T00:28:52.059Z,95238.00
2024-04-19T00:29:52.150Z,95237.00
2024-04-19T00:30:52.252Z,95236.00
2024-04-19T00:31:52.295Z,95236.00
2024-04-19T00:33:04.807Z,95236.00
2024-04-19T00:33:53.527Z,95236.00
2024-04-19T00:34:52.335Z,95237.00
2024-04-19T00:35:52.361Z,95237.00
2024-04-19T00:36:52.390Z,95232.00
2024-04-19T00:37:52.323Z,95233.00
2024-04-19T00:38:52.338Z,95230.00
2024-04-19T00:39:52.444Z,95229.00
2024-04-19T00:40:52.342Z,95228.00
2024-04-19T00:41:52.355Z,95228.00
2024-04-19T00:42:52.363Z,95225.00
2024-04-19T00:43:52.344Z,95222.00
2024-04-19T00:44:52.352Z,95221.00
2024-04-19T00:45:52.694Z,95218.00
2024-04-19T00:46:52.363Z,95219.00
2024-04-19T00:47:52.370Z,95218.00
2024-04-19T00:48:52.390Z,95216.00
2024-04-19T00:49:52.345Z,95214.00
2024-04-19T00:50:52.360Z,95215.00
2024-04-19T00:51:52.397Z,95213.00
2024-04-19T00:52:52.394Z,95211.00
2024-04-19T00:53:52.422Z,95211.00
2024-04-19T00:54:52.481Z,95209.00
2024-04-19T00:55:52.464Z,95207.00
2024-04-19T00:56:52.505Z,95204.00
2024-04-19T00:57:52.478Z,95203.00
2024-04-19T00:58:52.489Z,95206.00
2024-04-19T00:59:52.559Z,95207.00
2024-04-19T01:00:52.735Z,95209.00
2024-04-19T01:01:52.615Z,95212.00
2024-04-19T01:02:52.699Z,95210.00
2024-04-19T01:03:52.906Z,95207.00
2024-04-19T01:04:52.816Z,95206.00
2024-04-19T01:05:52.894Z,95204.00
2024-04-19T01:06:53.025Z,95206.00
2024-04-19T01:07:53.059Z,95202.00
2024-04-19T01:08:53.133Z,95202.00
2024-04-19T01:09:53.196Z,95201.00
2024-04-19T01:10:53.304Z,95200.00
2024-04-19T01:11:53.359Z,95202.00
2024-04-19T01:12:53.420Z,95199.00
2024-04-19T01:13:53.482Z,95198.00
2024-04-19T01:14:53.561Z,95197.00
2024-04-19T01:15:53.649Z,95197.00
2024-04-19T01:16:53.722Z,95197.00
2024-04-19T01:17:53.897Z,95194.00
2024-04-19T01:18:54.003Z,95195.00
2024-04-19T01:19:53.917Z,95196.00
2024-04-19T01:20:54.027Z,95195.00
2024-04-19T01:21:54.103Z,95195.00
2024-04-19T01:22:54.135Z,95196.00
2024-04-19T01:23:54.208Z,95197.00
2024-04-19T01:24:54.280Z,95198.00
2024-04-19T01:25:54.355Z,95198.00
2024-04-19T01:26:54.446Z,95199.00
2024-04-19T01:27:54.521Z,95198.00
2024-04-19T01:28:54.550Z,95198.00
2024-04-19T01:29:54.654Z,95198.00
2024-04-19T01:30:54.719Z,95198.00
2024-04-19T01:31:54.774Z,95193.00
2024-04-19T01:32:54.904Z,95195.00
2024-04-19T01:33:54.981Z,95194.00
2024-04-19T01:34:54.990Z,95197.00
2024-04-19T01:36:13.692Z,95197.00
2024-04-19T01:37:13.620Z,95197.00
2024-04-19T01:38:13.628Z,95198.00
2024-04-19T01:39:13.654Z,95195.00
2024-04-19T01:40:13.620Z,95195.00
2024-04-19T01:41:13.640Z,95194.00
2024-04-19T01:42:13.631Z,95193.00
2024-04-19T01:43:13.636Z,95192.00
2024-04-19T01:44:13.631Z,95195.00
2024-04-19T01:45:13.707Z,95194.00
2024-04-19T01:46:13.674Z,95195.00
2024-04-19T01:47:13.669Z,95194.00
2024-04-19T01:48:13.686Z,95194.00
2024-04-19T01:49:13.644Z,95194.00
2024-04-19T01:50:13.627Z,95193.00
2024-04-19T01:51:13.646Z,95192.00
2024-04-19T01:52:13.635Z,95193.00
2024-04-19T01:53:13.631Z,95193.00
2024-04-19T01:54:13.660Z,95192.00
2024-04-19T01:55:13.647Z,95195.00
2024-04-19T01:56:13.640Z,95192.00
2024-04-19T01:57:13.655Z,95191.00
2024-04-19T01:58:13.669Z,95193.00
2024-04-19T01:59:13.650Z,95191.00
2024-04-19T02:00:13.748Z,95190.00
2024-04-19T02:01:13.688Z,95189.00
2024-04-19T02:02:13.752Z,95192.00
2024-04-19T02:03:13.712Z,95191.00
2024-04-19T02:04:13.708Z,95192.00
2024-04-19T02:05:13.697Z,95194.00
2024-04-19T02:06:13.839Z,95192.00
2024-04-19T02:07:13.705Z,95192.00
2024-04-19T02:08:13.685Z,95187.00
2024-04-19T02:09:13.715Z,95187.00
2024-04-19T02:10:13.687Z,95185.00
2024-04-19T02:11:13.761Z,95185.00
2024-04-19T02:12:13.739Z,95185.00
2024-04-19T02:13:13.720Z,95188.00
2024-04-19T02:14:13.695Z,95186.00
2024-04-19T02:15:13.753Z,95189.00
2024-04-19T02:16:13.791Z,95186.00
2024-04-19T02:17:13.917Z,95186.00
2024-04-19T02:18:13.967Z,95186.00
2024-04-19T02:19:13.998Z,95184.00
2024-04-19T02:20:14.043Z,95184.00
2024-04-19T02:21:14.146Z,95184.00
2024-04-19T02:22:14.219Z,95182.00
2024-04-19T02:23:14.247Z,95183.00
2024-04-19T02:24:14.388Z,95183.00
2024-04-19T02:25:14.405Z,95182.00
2024-04-19T02:26:14.471Z,95181.00
2024-04-19T02:27:14.574Z,95178.00
2024-04-19T02:28:14.615Z,95179.00
2024-04-19T02:29:14.678Z,95178.00
2024-04-19T02:30:14.764Z,95178.00
2024-04-19T02:31:14.813Z,95180.00
2024-04-19T02:32:14.927Z,95178.00
2024-04-19T02:33:15.068Z,95177.00
2024-04-19T02:34:15.069Z,95176.00
2024-04-19T02:35:15.120Z,95177.00
2024-04-19T02:36:15.239Z,95177.00
2024-04-19T02:37:15.242Z,95176.00
2024-04-19T02:38:15.313Z,95174.00
2024-04-19T02:39:15.407Z,95175.00
2024-04-19T02:40:15.441Z,95175.00
2024-04-19T02:41:15.541Z,95173.00
2024-04-19T02:42:15.609Z,95174.00
2024-04-19T02:43:15.658Z,95173.00
2024-04-19T02:44:15.696Z,95173.00
2024-04-19T02:45:15.857Z,95172.00
2024-04-19T02:46:15.969Z,95173.00
2024-04-19T02:47:15.934Z,95172.00
2024-04-19T02:48:16.012Z,95171.00
2024-04-19T02:49:16.064Z,95174.00
2024-04-19T02:50:16.163Z,95173.00
2024-04-19T02:51:16.202Z,95173.00
2024-04-19T02:52:16.273Z,95173.00
2024-04-19T02:53:16.335Z,95172.00
2024-04-19T02:54:16.423Z,95171.00
2024-04-19T02:55:16.478Z,95168.00
2024-04-19T02:56:16.598Z,95166.00
2024-04-19T02:57:16.648Z,95163.00
2024-04-19T02:58:16.700Z,95163.00
2024-04-19T02:59:16.745Z,95159.00
2024-04-19T03:00:16.834Z,95160.00
2024-04-19T03:01:16.922Z,95156.00
2024-04-19T03:02:16.932Z,95154.00
2024-04-19T03:03:17.127Z,95153.00
2024-04-19T03:04:17.176Z,95150.00
2024-04-19T03:05:17.152Z,95150.00
2024-04-19T03:06:17.214Z,95152.00
2024-04-19T03:07:17.299Z,95149.00
2024-04-19T03:08:17.319Z,95149.00
2024-04-19T03:09:17.427Z,95148.00
2024-04-19T03:10:17.504Z,95148.00
2024-04-19T03:11:17.558Z,95148.00
2024-04-19T03:12:17.774Z,95147.00
2024-04-19T03:13:17.686Z,95146.00
2024-04-19T03:14:17.754Z,95146.00
2024-04-19T03:15:17.898Z,95144.00
2024-04-19T03:16:17.865Z,95144.00
2024-04-19T03:17:17.979Z,95143.00
2024-04-19T03:18:18.145Z,95143.00
2024-04-19T03:19:18.125Z,95142.00
2024-04-19T03:20:18.182Z,95142.00
2024-04-19T03:21:18.330Z,95140.00
2024-04-19T03:22:18.299Z,95137.00
2024-04-19T03:23:18.347Z,95137.00
2024-04-19T03:24:18.436Z,95136.00
2024-04-19T03:25:18.502Z,95138.00
2024-04-19T03:26:18.588Z,95139.00
2024-04-19T03:27:18.670Z,95138.00
2024-04-19T03:28:18.692Z,95140.00
2024-04-19T03:29:18.768Z,95139.00
2024-04-19T03:30:18.862Z,95138.00
2024-04-19T03:31:18.912Z,95136.00
2024-04-19T03:32:18.970Z,95137.00
2024-04-19T03:33:19.114Z,95133.00
2024-04-19T03:34:19.135Z,95132.00
2024-04-19T03:35:19.171Z,95127.00
2024-04-19T03:36:19.250Z,95129.00
2024-04-19T03:37:19.290Z,95128.00
2024-04-19T03:38:19.383Z,95130.00
2024-04-19T03:39:19.473Z,95127.00
2024-04-19T03:40:19.526Z,95128.00
2024-04-19T03:41:19.590Z,95128.00
2024-04-19T03:42:19.677Z,95125.00
2024-04-19T03:43:19.739Z,95125.00
2024-04-19T03:44:19.821Z,95124.00
2024-04-19T03:45:19.898Z,95125.00
2024-04-19T03:46:19.939Z,95124.00
2024-04-19T03:47:20.035Z,95125.00
2024-04-19T03:48:20.232Z,95126.00
2024-04-19T03:49:20.180Z,95126.00
2024-04-19T03:50:20.233Z,95128.00
2024-04-19T03:51:20.288Z,95127.00
2024-04-19T03:52:20.362Z,95127.00
2024-04-19T03:53:20.477Z,95128.00
2024-04-19T03:54:20.565Z,95126.00
2024-04-19T03:55:20.656Z,95125.00
2024-04-19T03:56:20.706Z,95124.00
2024-04-19T03:57:20.809Z,95122.00
2024-04-19T03:58:20.883Z,95119.00
2024-04-19T03:59:20.923Z,95121.00
2024-04-19T04:00:20.994Z,95119.00
2024-04-19T04:01:21.102Z,95118.00
2024-04-19T04:02:21.182Z,95117.00
2024-04-19T04:03:21.312Z,95116.00
2024-04-19T04:04:21.375Z,95117.00
2024-04-19T04:05:21.358Z,95119.00
2024-04-19T04:06:21.445Z,95119.00
2024-04-19T04:07:21.487Z,95119.00
2024-04-19T04:08:21.584Z,95122.00
2024-04-19T04:09:21.645Z,95119.00
2024-04-19T04:10:21.727Z,95118.00
2024-04-19T04:11:21.806Z,95118.00
2024-04-19T04:12:21.894Z,95116.00
2024-04-19T04:13:21.939Z,95117.00
2024-04-19T04:14:22.000Z,95115.00
2024-04-19T04:15:22.190Z,95115.00
2024-04-19T04:16:22.162Z,95114.00
2024-04-19T04:17:22.209Z,95113.00
2024-04-19T04:18:22.471Z,95111.00
2024-04-19T04:19:22.370Z,95110.00
2024-04-19T04:20:22.377Z,95113.00
2024-04-19T04:21:22.472Z,95113.00
2024-04-19T04:22:22.560Z,95114.00
2024-04-19T04:23:22.597Z,95112.00
2024-04-19T04:24:22.744Z,95110.00
2024-04-19T04:25:22.728Z,95109.00
2024-04-19T04:26:22.803Z,95112.00
2024-04-19T04:27:22.960Z,95113.00
2024-04-19T04:28:22.966Z,95113.00
2024-04-19T04:29:23.029Z,95117.00
2024-04-19T04:30:23.120Z,95116.00
2024-04-19T04:31:30.284Z,95115.00
2024-04-19T04:32:30.317Z,95115.00
2024-04-19T04:33:30.302Z,95114.00
2024-04-19T04:34:30.261Z,95114.00
2024-04-19T04:35:30.234Z,95116.00
2024-04-19T04:36:30.296Z,95116.00
2024-04-19T04:37:30.308Z,95115.00
2024-04-19T04:38:30.226Z,95116.00
2024-04-19T04:39:30.204Z,95116.00
2024-04-19T04:40:30.208Z,95119.00
2024-04-19T04:41:30.207Z,95117.00
2024-04-19T04:42:30.202Z,95115.00
2024-04-19T04:43:30.177Z,95115.00
2024-04-19T04:44:30.162Z,95114.00
2024-04-19T04:45:30.170Z,95112.00
2024-04-19T04:46:30.124Z,95113.00
2024-04-19T04:47:30.143Z,95114.00
2024-04-19T04:48:30.147Z,95116.00
2024-04-19T04:49:30.098Z,95116.00
2024-04-19T04:50:30.127Z,95116.00
2024-04-19T04:51:30.127Z,95115.00
2024-04-19T04:52:30.096Z,95117.00
2024-04-19T04:53:30.089Z,95115.00
2024-04-19T04:54:30.955Z,95117.00
2024-04-19T04:55:30.053Z,95117.00
2024-04-19T04:56:30.044Z,95120.00
2024-04-19T04:57:30.056Z,95119.00
2024-04-19T04:58:29.994Z,95119.00
2024-04-19T04:59:30.004Z,95119.00
2024-04-19T05:00:30.987Z,95122.00
2024-04-19T05:01:52.440Z,95122.00
2024-04-19T05:02:30.004Z,95123.00
2024-04-19T05:03:29.980Z,95122.00
2024-04-19T05:04:30.032Z,95122.00
2024-04-19T05:05:29.928Z,95121.00
2024-04-19T05:06:29.926Z,95119.00
2024-04-19T05:07:29.933Z,95118.00
2024-04-19T05:08:29.898Z,95117.00
2024-04-19T05:09:29.884Z,95118.00
2024-04-19T05:10:29.843Z,95119.00
2024-04-19T05:11:29.852Z,95116.00
2024-04-19T05:12:29.841Z,95117.00
2024-04-19T05:13:29.799Z,95116.00
2024-04-19T05:14:29.796Z,95117.00
2024-04-19T05:15:29.819Z,95117.00
2024-04-19T05:16:29.788Z,95117.00
2024-04-19T05:17:29.822Z,95116.00
2024-04-19T05:18:29.869Z,95116.00
2024-04-19T05:19:29.733Z,95117.00
2024-04-19T05:20:29.728Z,95115.00
2024-04-19T05:21:29.751Z,95115.00
2024-04-19T05:22:29.673Z,95112.00
2024-04-19T05:23:29.692Z,95112.00
2024-04-19T05:24:29.717Z,95113.00
2024-04-19T05:25:29.629Z,95110.00
2024-04-19T05:26:29.638Z,95109.00
2024-04-19T05:27:29.598Z,95111.00
2024-04-19T05:28:29.596Z,95110.00
2024-04-19T05:29:29.602Z,95110.00
2024-04-19T05:30:29.618Z,95110.00
2024-04-19T05:31:29.571Z,95109.00
2024-04-19T05:32:29.620Z,95105.00
2024-04-19T05:33:29.548Z,95102.00
2024-04-19T05:34:29.506Z,95104.00
2024-04-19T05:35:29.517Z,95105.00
2024-04-19T05:36:29.529Z,95101.00
2024-04-19T05:37:29.498Z,95101.00
2024-04-19T05:38:29.963Z,95103.00
2024-04-19T05:39:29.648Z,95101.00
2024-04-19T05:40:29.694Z,95101.00
2024-04-19T05:41:29.780Z,95105.00
2024-04-19T05:42:31.862Z,95106.00
2024-04-19T05:43:29.951Z,95108.00
2024-04-19T05:44:29.816Z,95108.00
2024-04-19T05:45:29.916Z,95107.00
2024-04-19T05:46:52.320Z,95108.00
2024-04-19T05:47:29.860Z,95108.00
2024-04-19T05:48:30.068Z,95107.00
2024-04-19T05:49:29.798Z,95107.00
2024-04-19T05:50:29.802Z,95107.00
2024-04-19T05:51:29.860Z,95106.00
2024-04-19T05:52:29.820Z,95105.00
2024-04-19T05:53:29.959Z,95105.00
2024-04-19T05:54:29.818Z,95107.00
2024-04-19T05:55:29.779Z,95104.00
2024-04-19T05:56:29.738Z,95103.00
2024-04-19T05:57:29.803Z,95103.00
2024-04-19T05:58:30.003Z,95103.00
2024-04-19T05:59:29.795Z,95104.00
2024-04-19T06:00:29.827Z,95100.00
2024-04-19T06:01:29.733Z,95101.00
2024-04-19T06:02:29.738Z,95100.00
2024-04-19T06:03:29.791Z,95100.00
2024-04-19T06:04:29.688Z,95098.00
2024-04-19T06:05:29.668Z,95098.00
2024-04-19T06:06:29.689Z,95097.00
2024-04-19T06:07:29.645Z,95096.00
2024-04-19T06:08:29.659Z,95095.00
2024-04-19T06:09:29.655Z,95097.00
2024-04-19T06:10:29.653Z,95098.00
2024-04-19T06:11:29.671Z,95098.00
2024-04-19T06:12:29.692Z,95098.00
2024-04-19T06:13:29.734Z,95101.00
2024-04-19T06:14:29.805Z,95100.00
2024-04-19T06:15:29.908Z,95099.00
2024-04-19T06:16:29.958Z,95096.00
2024-04-19T06:17:30.103Z,95100.00
2024-04-19T06:18:30.587Z,95104.00
2024-04-19T06:19:30.366Z,95103.00
2024-04-19T06:20:30.427Z,95100.00
2024-04-19T06:21:30.514Z,95098.00
2024-04-19T06:22:30.600Z,95098.00
2024-04-19T06:23:30.745Z,95098.00
2024-04-19T06:24:30.816Z,95100.00
2024-04-19T06:25:30.866Z,95095.00
2024-04-19T06:26:30.970Z,95094.00
2024-04-19T06:27:31.031Z,95092.00
2024-04-19T06:28:31.128Z,95092.00
2024-04-19T06:29:31.310Z,95090.00
2024-04-19T06:30:31.405Z,95089.00
2024-04-19T06:31:31.479Z,95087.00
2024-04-19T06:32:31.595Z,95089.00
2024-04-19T06:33:32.054Z,95088.00
2024-04-19T06:34:31.769Z,95088.00
2024-04-19T06:35:31.903Z,95087.00
2024-04-19T06:36:32.022Z,95086.00
2024-04-19T06:37:32.110Z,95085.00
2024-04-19T06:38:32.530Z,95087.00
2024-04-19T06:39:32.269Z,95087.00
2024-04-19T06:40:32.383Z,95086.00
2024-04-19T06:41:32.364Z,95088.00
2024-04-19T06:42:32.486Z,95091.00
2024-04-19T06:43:32.486Z,95088.00
2024-04-19T06:44:32.609Z,95088.00
2024-04-19T06:45:33.546Z,95088.00
2024-04-19T06:46:32.684Z,95089.00
2024-04-19T06:47:32.775Z,95089.00
2024-04-19T06:48:33.023Z,95086.00
2024-04-19T06:49:32.811Z,95086.00
2024-04-19T06:50:32.905Z,95083.00
2024-04-19T06:51:35.118Z,95083.00
2024-04-19T06:52:32.952Z,95083.00
2024-04-19T06:53:32.942Z,95081.00
2024-04-19T06:54:32.902Z,95082.00
2024-04-19T06:55:32.912Z,95081.00
2024-04-19T06:56:32.919Z,95080.00
2024-04-19T06:57:32.894Z,95076.00
2024-04-19T06:58:32.873Z,95075.00
2024-04-19T06:59:32.845Z,95073.00
2024-04-19T07:00:41.451Z,95072.00
2024-04-19T07:01:33.948Z,95073.00
2024-04-19T07:02:32.964Z,95072.00
2024-04-19T07:03:33.018Z,95072.00
2024-04-19T07:04:32.884Z,95070.00
2024-04-19T07:05:32.831Z,95070.00
2024-04-19T07:06:40.427Z,95069.00
2024-04-19T07:07:33.880Z,95069.00
2024-04-19T07:08:32.783Z,95070.00
2024-04-19T07:09:33.030Z,95068.00
2024-04-19T07:10:32.768Z,95068.00
2024-04-19T07:11:32.777Z,95069.00
2024-04-19T07:12:32.814Z,95070.00
2024-04-19T07:13:32.789Z,95067.00
2024-04-19T07:14:32.770Z,95069.00
2024-04-19T07:15:32.818Z,95066.00
2024-04-19T07:16:32.932Z,95065.00
2024-04-19T07:17:32.872Z,95062.00
2024-04-19T07:18:32.806Z,95060.00
2024-04-19T07:19:32.822Z,95060.00
2024-04-19T07:20:32.787Z,95059.00
2024-04-19T07:21:32.820Z,95060.00
2024-04-19T07:22:32.784Z,95059.00
2024-04-19T07:23:32.856Z,95056.00
2024-04-19T07:24:33.019Z,95056.00
2024-04-19T07:25:32.989Z,95055.00
2024-04-19T07:26:33.020Z,95055.00
2024-04-19T07:27:39.089Z,95051.00
2024-04-19T07:28:34.116Z,95053.00
2024-04-19T07:29:33.556Z,95052.00
2024-04-19T07:30:33.105Z,95049.00
2024-04-19T07:31:33.064Z,95048.00
2024-04-19T07:32:33.079Z,95048.00
2024-04-19T07:33:33.083Z,95048.00
2024-04-19T07:34:33.055Z,95046.00
2024-04-19T07:35:33.031Z,95043.00
2024-04-19T07:36:33.083Z,95041.00
2024-04-19T07:37:33.072Z,95041.00
2024-04-19T07:38:33.100Z,95036.00
2024-04-19T07:39:33.529Z,95036.00
2024-04-19T07:40:33.108Z,95034.00
2024-04-19T07:41:33.134Z,95031.00
2024-04-19T07:42:33.196Z,95031.00
2024-04-19T07:43:33.133Z,95029.00
2024-04-19T07:44:33.070Z,95027.00
2024-04-19T07:45:33.161Z,95022.00
2024-04-19T07:46:33.106Z,95021.00
2024-04-19T07:47:33.091Z,95018.00
2024-04-19T07:48:33.240Z,95015.00
2024-04-19T07:49:33.639Z,95016.00
2024-04-19T07:50:33.088Z,95013.00
2024-04-19T07:51:33.125Z,95014.00
2024-04-19T07:52:33.134Z,95010.00
2024-04-19T07:53:34.078Z,95007.00
2024-04-19T07:54:33.052Z,95004.00
2024-04-19T07:55:33.573Z,95002.00
2024-04-19T07:56:33.074Z,95002.00
2024-04-19T07:57:33.174Z,94999.00
2024-04-19T07:58:34.865Z,95000.00
2024-04-19T07:59:33.151Z,95000.00
2024-04-19T08:00:33.249Z,94999.00
2024-04-19T08:01:33.246Z,94999.00
2024-04-19T08:02:33.266Z,94997.00
2024-04-19T08:03:33.390Z,94996.00
2024-04-19T08:04:33.506Z,94993.00
2024-04-19T08:05:34.045Z,94994.00
2024-04-19T08:06:33.664Z,94992.00
2024-04-19T08:08:33.722Z,94990.00
2024-04-19T08:09:33.735Z,94990.00
2024-04-19T08:10:35.016Z,94989.00
2024-04-19T08:11:33.927Z,94984.00
2024-04-19T08:12:33.937Z,94987.00
2024-04-19T08:13:34.019Z,94984.00
2024-04-19T08:14:34.120Z,94987.00
2024-04-19T08:15:34.161Z,94985.00
2024-04-19T08:16:33.953Z,94983.00
2024-04-19T08:17:34.061Z,94980.00
2024-04-19T08:18:34.040Z,94982.00
2024-04-19T08:19:34.037Z,94978.00
2024-04-19T08:20:34.584Z,94978.00
2024-04-19T08:21:34.154Z,94974.00
2024-04-19T08:22:34.122Z,94973.00
2024-04-19T08:23:34.135Z,94972.00
2024-04-19T08:24:34.174Z,94968.00
2024-04-19T08:25:34.227Z,94969.00
2024-04-19T08:26:35.054Z,94963.00
2024-04-19T08:27:34.190Z,94963.00
2024-04-19T08:28:34.208Z,94964.00
2024-04-19T08:29:35.977Z,94964.00
2024-04-19T08:30:34.659Z,94964.00
2024-04-19T08:31:34.332Z,94963.00
2024-04-19T08:32:34.467Z,94963.00
2024-04-19T08:33:34.569Z,94964.00
2024-04-19T08:34:34.623Z,94964.00
2024-04-19T08:35:35.072Z,94965.00
2024-04-19T08:36:34.926Z,94964.00
2024-04-19T08:37:35.006Z,94959.00
2024-04-19T08:38:35.205Z,94957.00
2024-04-19T08:39:35.317Z,94959.00
2024-04-19T08:40:36.062Z,94960.00
2024-04-19T08:41:35.428Z,94959.00
2024-04-19T08:42:35.560Z,94956.00
2024-04-19T08:43:35.713Z,94956.00
2024-04-19T08:44:35.771Z,94953.00
2024-04-19T08:45:35.956Z,94951.00
2024-04-19T08:46:36.022Z,94949.00
2024-04-19T08:47:36.242Z,94948.00
2024-04-19T08:48:36.606Z,94946.00
2024-04-19T08:49:36.413Z,94945.00
2024-04-19T08:50:36.579Z,94942.00
2024-04-19T08:51:50.594Z,94938.00
2024-04-19T08:52:58.618Z,94936.00
2024-04-19T08:53:37.692Z,94932.00
2024-04-19T08:54:36.716Z,94930.00
2024-04-19T08:55:37.059Z,94926.00
2024-04-19T08:56:36.754Z,94924.00
2024-04-19T08:57:36.848Z,94922.00
2024-04-19T08:58:36.839Z,94921.00
2024-04-19T08:59:36.879Z,94920.00
2024-04-19T09:00:36.971Z,94922.00
2024-04-19T09:01:36.978Z,94919.00
2024-04-19T09:02:37.040Z,94924.00
2024-04-19T09:03:37.202Z,94923.00
2024-04-19T09:04:37.213Z,94922.00
2024-04-19T09:05:37.072Z,94922.00
2024-04-19T09:06:37.604Z,94922.00
2024-04-19T09:07:37.102Z,94915.00
2024-04-19T09:08:37.131Z,94917.00
2024-04-19T09:09:37.163Z,94918.00
2024-04-19T09:10:37.660Z,94914.00
2024-04-19T09:11:37.183Z,94919.00
2024-04-19T09:12:37.192Z,94916.00
2024-04-19T09:13:37.212Z,94912.00
2024-04-19T09:14:37.240Z,94912.00
2024-04-19T09:15:37.406Z,94911.00
2024-04-19T09:16:37.535Z,94910.00
2024-04-19T09:17:37.726Z,94910.00
2024-04-19T09:18:37.762Z,94910.00
2024-04-19T09:19:37.864Z,94908.00
2024-04-19T09:20:38.025Z,94907.00
2024-04-19T09:21:39.575Z,94905.00
2024-04-19T09:22:38.153Z,94906.00
2024-04-19T09:23:38.244Z,94906.00
2024-04-19T09:24:38.286Z,94904.00
2024-04-19T09:25:38.288Z,94905.00
2024-04-19T09:26:38.327Z,94898.00
2024-04-19T09:27:38.441Z,94897.00
2024-04-19T09:28:38.412Z,94894.00
2024-04-19T09:29:38.474Z,94891.00
2024-04-19T09:30:38.544Z,94888.00
2024-04-19T09:31:39.060Z,94886.00
2024-04-19T09:32:38.723Z,94882.00
2024-04-19T09:33:38.809Z,94882.00
2024-04-19T09:34:38.728Z,94880.00
2024-04-19T09:35:38.817Z,94877.00
2024-04-19T09:36:38.971Z,94874.00
2024-04-19T09:37:38.843Z,94874.00
2024-04-19T09:38:38.867Z,94870.00
2024-04-19T09:39:38.911Z,94870.00
2024-04-19T09:40:38.942Z,94870.00
2024-04-19T09:41:39.090Z,94867.00
2024-04-19T09:42:39.016Z,94867.00
2024-04-19T09:43:39.039Z,94863.00
2024-04-19T09:44:39.064Z,94859.00
2024-04-19T09:45:39.124Z,94857.00
2024-04-19T09:46:39.198Z,94855.00
2024-04-19T09:47:39.338Z,94853.00
2024-04-19T09:48:41.258Z,94848.00
2024-04-19T09:49:39.371Z,94848.00
2024-04-19T09:50:39.411Z,94848.00
2024-04-19T09:51:39.489Z,94846.00
2024-04-19T09:52:39.564Z,94846.00
2024-04-19T09:53:39.600Z,94842.00
2024-04-19T09:54:39.683Z,94837.00
2024-04-19T09:55:39.742Z,94839.00
2024-04-19T09:56:39.838Z,94837.00
2024-04-19T09:57:39.963Z,94838.00
2024-04-19T09:58:40.003Z,94838.00
2024-04-19T09:59:40.048Z,94839.00
2024-04-19T10:00:40.255Z,94837.00
2024-04-19T10:01:40.292Z,94837.00
2024-04-19T10:02:40.463Z,94836.00
2024-04-19T10:03:40.483Z,94832.00
2024-04-19T10:04:40.567Z,94831.00
2024-04-19T10:05:40.477Z,94829.00
2024-04-19T10:06:43.395Z,94826.00
2024-04-19T10:07:40.591Z,94822.00
2024-04-19T10:08:40.562Z,94819.00
2024-04-19T10:09:40.641Z,94821.00
2024-04-19T10:10:40.668Z,94818.00
2024-04-19T10:11:40.560Z,94818.00
2024-04-19T10:12:42.700Z,94815.00
2024-04-19T10:13:40.746Z,94813.00
2024-04-19T10:14:40.734Z,94811.00
2024-04-19T10:15:40.766Z,94809.00
2024-04-19T10:16:40.755Z,94809.00
2024-04-19T10:17:40.980Z,94809.00
2024-04-19T10:18:41.028Z,94804.00
2024-04-19T10:19:49.326Z,94801.00
2024-04-19T10:20:41.815Z,94802.00
2024-04-19T10:21:41.131Z,94804.00
2024-04-19T10:22:40.782Z,94798.00
2024-04-19T10:23:40.820Z,94796.00
2024-04-19T10:24:40.838Z,94794.00
2024-04-19T10:25:40.829Z,94794.00
2024-04-19T10:26:40.847Z,94793.00
2024-04-19T10:27:40.844Z,94791.00
2024-04-19T10:28:40.844Z,94792.00
2024-04-19T10:29:41.423Z,94789.00
2024-04-19T10:30:41.580Z,94788.00
2024-04-19T10:31:41.149Z,94785.00
2024-04-19T10:32:40.796Z,94781.00
2024-04-19T10:33:40.808Z,94778.00
2024-04-19T10:34:40.825Z,94773.00
2024-04-19T10:35:40.867Z,94769.00
2024-04-19T10:36:41.210Z,94765.00
2024-04-19T10:37:40.914Z,94767.00
2024-04-19T10:38:41.001Z,94764.00
2024-04-19T10:39:41.076Z,94761.00
2024-04-19T10:40:41.075Z,94756.00
2024-04-19T10:41:41.666Z,94752.00
2024-04-19T10:42:42.165Z,94750.00
2024-04-19T10:43:41.443Z,94751.00
2024-04-19T10:44:41.361Z,94749.00
2024-04-19T10:45:41.444Z,94743.00
2024-04-19T10:46:41.493Z,94741.00
2024-04-19T10:47:41.700Z,94737.00
2024-04-19T10:48:41.760Z,94741.00
2024-04-19T10:49:41.765Z,94734.00
2024-04-19T10:50:41.902Z,94735.00
2024-04-19T10:51:42.056Z,94730.00
2024-04-19T10:52:42.143Z,94730.00
2024-04-19T10:53:43.974Z,94729.00
2024-04-19T10:54:42.406Z,94728.00
2024-04-19T10:55:42.445Z,94728.00
2024-04-19T10:56:42.485Z,94725.00
2024-04-19T10:57:42.599Z,94719.00
2024-04-19T10:58:42.597Z,94712.00
2024-04-19T10:59:42.629Z,94709.00
2024-04-19T11:00:43.184Z,94703.00
2024-04-19T11:01:42.772Z,94702.00
2024-04-19T11:02:43.141Z,94700.00
2024-04-19T11:03:42.813Z,94695.00
2024-04-19T11:04:42.921Z,94695.00
2024-04-19T11:05:43.798Z,94685.00
2024-04-19T11:06:43.168Z,94682.00
2024-04-19T11:07:42.779Z,94679.00
2024-04-19T11:08:42.765Z,94679.00
2024-04-19T11:09:42.748Z,94676.00
2024-04-19T11:10:42.753Z,94676.00
2024-04-19T11:11:42.762Z,94672.00
2024-04-19T11:12:42.805Z,94668.00
2024-04-19T11:13:42.734Z,94664.00
2024-04-19T11:14:42.691Z,94666.00
2024-04-19T11:15:48.680Z,94660.00
2024-04-19T11:16:43.667Z,94656.00
2024-04-19T11:17:43.381Z,94655.00
2024-04-19T11:18:42.902Z,94651.00
2024-04-19T11:19:42.772Z,94647.00
2024-04-19T11:20:45.623Z,94648.00
2024-04-19T11:21:42.659Z,94650.00
2024-04-19T11:22:43.387Z,94646.00
2024-04-19T11:23:42.607Z,94640.00
2024-04-19T11:24:42.676Z,94636.00
2024-04-19T11:25:42.588Z,94633.00
2024-04-19T11:26:42.552Z,94631.00
2024-04-19T11:27:42.684Z,94625.00
2024-04-19T11:28:42.720Z,94628.00
2024-04-19T11:29:43.547Z,94624.00
2024-04-19T11:30:42.620Z,94621.00
2024-04-19T11:31:42.708Z,94618.00
2024-04-19T11:32:42.653Z,94616.00
2024-04-19T11:33:42.594Z,94618.00
2024-04-19T11:34:42.963Z,94615.00
2024-04-19T11:35:42.585Z,94612.00
2024-04-19T11:36:42.745Z,94612.00
2024-04-19T11:37:43.178Z,94610.00
2024-04-19T11:38:42.809Z,94607.00
2024-04-19T11:39:42.927Z,94601.00
2024-04-19T11:40:43.019Z,94597.00
2024-04-19T11:41:43.048Z,94594.00
2024-04-19T11:42:43.137Z,94594.00
2024-04-19T11:43:43.202Z,94596.00
2024-04-19T11:44:43.254Z,94590.00
2024-04-19T11:45:43.362Z,94587.00
2024-04-19T11:46:44.066Z,94589.00